Flight Briefing for CPX714

Departure Arrival
José María Córdova International Airport (SKRG)
Click to view FAA NOTAMS
Miami International Airport (KMIA)
Click to view FAA NOTAMS
Departure Time Arrival Time
1430 UTC 1800 UTC
Aircraft Distance
B767-300BDSF 1271nm
Departure METAR Arrival METAR
SKRG 180500Z 00000KT 9999 SCT010 SCT080 16/15 A3035 KMIA 180453Z 14007KT 10SM FEW025 SCT050 SCT065 24/23 A3005 RMK AO2 SLP176 T02440233 402830189
Suggested Route
BUTAL UQ105 KILER UG430 UCA UA301 URSUS FLIPR5


View recent IFR Routes data
Notes



Charts and Procedures

Charts for SKRG
No chart available
Charts for KMIA
No chart available

Ventusky Weather